Latest Weather Observations for Mardie

IDW60801

Issued at 4:35 pm WST Monday 21 April 2014 (issued every 30 minutes, with the page automatically refreshed every 10 minutes)

About weather observations | Map of weather stations | Latest weather observations for WA | Other Formats
Station Details ID: 005008 Name: MARDIE Lat: -21.19 Lon: 115.98 Height: 11.0 m
Data from the previous 72 hours. | See also: Recent months at Mardie
Date/Time
WST
Temp
°C
App
Temp
°C
Dew
Point
Rel
Hum
%
Delta-T
°C
Wind Press
QNH
hPa
Press
MSL
hPa
Rain
since 9 am
mm
Dir
 
Spd
km/h
Gust
km/h
Spd
kts
Gust
kts
21/04:30pm 31.8 30.4 16.9 40 9.4 NW 20 28 11 15 1010.3 - 0.0
21/04:00pm 33.0 30.5 13.6 31 11.8 NW 19 26 10 14 1010.0 1010.0 0.0
21/03:30pm 34.0 31.3 13.5 29 12.4 WNW 20 26 11 14 1010.0 - 0.0
21/03:00pm 34.7 31.5 11.2 24 13.8 WNW 19 26 10 14 1010.0 1010.0 0.0
21/02:30pm 34.6 32.1 14.0 29 12.6 NW 20 28 11 15 1010.0 - 0.0
21/02:00pm 35.6 32.4 11.9 24 14.2 WNW 20 26 11 14 1010.1 1010.1 0.0
21/01:30pm 36.5 32.3 7.5 17 16.3 WNW 19 24 10 13 1010.1 - 0.0
21/01:00pm 36.6 31.6 4.8 14 17.1 WNW 20 24 11 13 1010.2 1010.2 0.0
21/12:30pm 35.8 33.2 4.2 14 16.8 ENE 7 13 4 7 1010.4 - 0.0
21/12:00pm 35.9 33.3 4.2 14 16.8 S 7 15 4 8 1010.8 1010.8 0.0
21/11:30am 35.9 32.9 4.2 14 16.8 SSW 9 19 5 10 1011.3 - 0.0
21/11:00am 34.4 31.9 5.0 16 15.7 SW 7 20 4 11 1011.5 1011.5 0.0
21/10:30am 33.6 31.5 6.8 19 14.6 S 7 13 4 7 1011.9 - 0.0
21/10:00am 32.0 30.6 8.9 24 13.0 S 6 11 3 6 1012.1 1012.1 0.0
21/09:30am 30.9 29.2 9.7 27 12.0 SSE 9 15 5 8 1012.0 - 0.0
21/09:00am 29.3 27.8 10.4 31 10.7 SSE 9 13 5 7 1012.0 1012.0 0.0
21/08:30am 28.1 25.8 10.3 33 10.0 SSE 13 20 7 11 1012.1 - 0.0
21/08:00am 24.9 26.6 17.1 62 4.8 S 4 7 2 4 1012.1 1012.1 0.0
21/07:30am 21.9 25.1 20.5 92 0.9 NW 4 7 2 4 1011.9 - 0.0
21/07:00am 20.0 21.5 17.6 86 1.5 NW 6 7 3 4 1011.7 1011.7 0.0
21/06:30am 19.3 19.5 14.1 72 3.0 NW 6 7 3 4 1011.5 - 0.0
21/06:00am 19.4 20.7 14.0 71 3.1 NW 0 0 0 0 1011.1 1011.1 0.0
21/05:30am 19.8 20.7 14.0 69 3.3 NW 2 2 1 1 1010.9 - 0.0
21/05:00am 20.2 21.5 14.1 68 3.5 CALM 0 0 0 0 1010.8 1010.8 0.0
21/04:30am 20.9 22.6 15.2 70 3.4 CALM 0 0 0 0 1010.7 - 0.0
21/04:00am 21.4 23.7 16.8 75 2.8 CALM 0 0 0 0 1010.6 1010.6 0.0
21/03:30am 22.0 23.8 17.4 75 2.8 NW 4 6 2 3 1010.6 - 0.0
21/03:00am 21.9 23.7 16.4 71 3.3 NW 2 6 1 3 1010.6 1010.6 0.0
21/02:30am 22.2 24.6 17.1 73 3.1 CALM 0 0 0 0 1010.6 - 0.0
21/02:00am 22.6 25.2 17.5 73 3.2 CALM 0 0 0 0 1010.7 1010.7 0.0
21/01:30am 23.0 26.3 19.0 78 2.5 CALM 0 0 0 0 1010.8 - 0.0
21/01:00am 23.4 27.5 21.5 89 1.3 NW 2 4 1 2 1010.9 1010.9 0.0
21/12:30am 23.8 27.9 22.2 91 1.1 NW 4 4 2 2 1011.0 - 0.0
21/12:00am 24.3 28.5 23.1 93 0.8 NW 6 6 3 3 1011.1 1011.1 0.0
 
Date/Time
WST
Temp
°C
App
Temp
°C
Dew
Point
Rel
Hum
%
Delta-T
°C
Wind Press
QNH
hPa
Press
MSL
hPa
Rain
since 9 am
mm
Dir
 
Spd
km/h
Gust
km/h
Spd
kts
Gust
kts
20/11:30pm 24.2 28.2 22.8 92 0.9 NW 6 7 3 4 1011.3 - 0.0
20/11:00pm 24.8 29.0 23.2 91 1.1 NW 6 6 3 3 1011.3 1011.3 0.0
20/10:30pm 25.0 29.6 23.2 90 1.2 NW 4 6 2 3 1011.4 - 0.0
20/10:00pm 25.2 29.5 22.7 86 1.7 NW 4 6 2 3 1011.4 1011.4 0.0
20/09:30pm 25.7 29.6 22.6 83 2.1 NW 6 7 3 4 1011.3 - 0.0
20/09:00pm 25.4 28.6 21.3 78 2.7 WNW 6 7 3 4 1011.2 1011.2 0.0
20/08:30pm 26.1 29.1 20.9 73 3.4 WNW 6 7 3 4 1011.0 - 0.0
20/08:00pm 27.0 30.6 20.6 68 4.2 WNW 2 4 1 2 1010.7 1010.7 0.0
20/07:30pm 27.7 30.2 19.8 62 5.1 WNW 6 7 3 4 1010.4 - 0.0
20/07:00pm 28.4 30.6 19.6 59 5.7 WNW 7 9 4 5 1010.2 1010.2 0.0
20/06:30pm 29.5 30.2 18.0 50 7.3 WNW 11 15 6 8 1010.0 - 0.0
20/06:00pm 30.9 30.3 14.5 37 10.0 WNW 11 13 6 7 1009.7 1009.7 0.0
20/05:30pm 32.2 30.6 12.9 31 11.5 NW 13 19 7 10 1009.5 - 0.0
20/05:00pm 33.0 31.5 14.1 32 11.5 NW 15 20 8 11 1009.3 1009.3 0.0
20/04:30pm 35.1 31.8 9.5 21 14.7 NW 17 24 9 13 1009.1 - 0.0
20/04:00pm 35.2 30.6 5.6 16 16.0 NW 19 24 10 13 1009.0 1009.0 0.0
20/03:30pm 35.8 31.3 6.1 16 16.2 NW 19 26 10 14 1008.9 - 0.0
20/03:00pm 36.2 31.4 5.5 15 16.7 NW 20 28 11 15 1008.9 1008.9 0.0
20/02:30pm 36.0 31.7 7.1 17 16.1 NW 19 28 10 15 1009.0 - 0.0
20/02:00pm 36.2 32.2 8.1 18 15.9 NW 19 26 10 14 1009.0 1009.0 0.0
20/01:30pm 36.7 32.2 5.9 15 16.9 NW 19 33 10 18 1009.2 - 0.0
20/01:00pm 36.3 31.7 3.5 13 17.3 WNW 17 28 9 15 1009.5 1009.5 0.0
20/12:30pm 36.6 32.8 3.7 13 17.4 NW 13 22 7 12 1009.9 - 0.0
20/12:00pm 36.1 31.8 3.3 13 17.2 WNW 15 28 8 15 1010.4 1010.4 0.0
20/11:30am 35.7 32.7 1.9 12 17.3 W 7 17 4 9 1010.9 - 0.0
20/11:00am 35.3 31.7 2.7 13 16.9 S 11 22 6 12 1011.2 1011.2 0.0
20/10:30am 35.1 31.2 3.6 14 16.5 SSW 13 20 7 11 1011.6 - 0.0
20/10:00am 34.3 31.4 4.9 16 15.7 SW 9 17 5 9 1011.8 1011.8 0.0
20/09:30am 33.1 30.4 5.6 18 14.7 S 9 13 5 7 1011.8 - 0.0
20/09:00am 31.5 28.6 6.5 21 13.5 S 11 15 6 8 1012.0 1012.0 0.0
20/08:30am 29.4 26.8 7.9 26 11.7 S 11 15 6 8 1012.1 - 0.0
20/08:00am 27.2 25.7 8.6 31 10.1 W 6 9 3 5 1012.1 1012.1 0.0
20/07:30am 23.1 22.3 9.5 42 7.4 W 4 6 2 3 1012.0 - 0.0
20/07:00am 20.4 18.8 8.7 47 6.1 W 7 9 4 5 1012.0 1012.0 0.0
20/06:30am 19.8 18.8 8.8 49 5.8 W 4 6 2 3 1011.8 - 0.0
20/06:00am 20.2 19.0 8.2 46 6.2 W 4 6 2 3 1011.6 1011.6 0.0
20/05:30am 20.7 19.7 9.0 47 6.2 W 4 6 2 3 1011.4 - 0.0
20/05:00am 20.8 20.2 9.1 47 6.2 W 2 4 1 2 1011.2 1011.2 0.0
20/04:30am 21.2 20.3 9.1 46 6.4 W 4 4 2 2 1011.3 - 0.0
20/04:00am 22.1 22.0 9.3 44 6.9 CALM 0 0 0 0 1011.3 1011.3 0.0
20/03:30am 22.4 21.7 9.9 45 6.8 W 4 4 2 2 1011.2 - 0.0
20/03:00am 22.6 22.0 10.4 46 6.7 W 4 6 2 3 1011.3 1011.3 0.0
20/02:30am 22.4 21.5 11.2 49 6.2 W 7 9 4 5 1011.2 - 0.0
20/02:00am 22.7 22.1 12.3 52 5.9 W 7 7 4 4 1011.4 1011.4 0.0
20/01:30am 22.5 21.7 13.0 55 5.5 W 9 9 5 5 1011.6 - 0.0
20/01:00am 23.0 22.6 14.0 57 5.3 W 9 9 5 5 1011.7 1011.7 0.0
20/12:30am 22.9 22.6 14.5 59 5.0 W 9 9 5 5 1011.7 - 0.0
20/12:00am 23.0 23.1 15.6 63 4.4 W 9 9 5 5 1011.7 1011.7 0.0
 
Date/Time
WST
Temp
°C
App
Temp
°C
Dew
Point
Rel
Hum
%
Delta-T
°C
Wind Press
QNH
hPa
Press
MSL
hPa
Rain
since 9 am
mm
Dir
 
Spd
km/h
Gust
km/h
Spd
kts
Gust
kts
19/11:30pm 23.3 24.4 17.1 68 3.8 W 7 7 4 4 1011.8 - 0.0
19/11:00pm 23.7 24.8 16.7 65 4.3 W 6 7 3 4 1012.1 1012.1 0.0
19/10:30pm 24.2 25.0 15.9 59 5.0 W 6 6 3 3 1012.2 - 0.0
19/10:00pm 24.6 26.3 17.1 63 4.6 W 4 4 2 2 1012.2 1012.2 0.0
19/09:30pm 25.1 27.1 18.8 68 4.0 W 6 6 3 3 1012.3 - 0.0
19/09:00pm 25.9 28.2 19.5 68 4.1 W 6 7 3 4 1012.3 1012.3 0.0
19/08:30pm 26.5 28.7 19.1 64 4.8 W 6 7 3 4 1012.3 - 0.0
19/08:00pm 27.1 29.3 18.4 59 5.5 WNW 4 6 2 3 1012.0 1012.0 0.0
19/07:30pm 27.7 29.2 17.5 53 6.4 WNW 6 7 3 4 1011.6 - 0.0
19/07:00pm 28.4 29.5 16.7 49 7.3 WNW 6 7 3 4 1011.4 1011.4 0.0
19/06:30pm 29.4 30.5 16.6 46 8.0 WNW 6 7 3 4 1011.0 - 0.0
19/06:00pm 31.2 31.0 13.5 34 10.6 NW 7 9 4 5 1010.8 1010.8 0.0
19/05:30pm 32.4 30.4 11.6 28 12.2 NW 13 20 7 11 1010.6 - 0.0
19/05:00pm 33.6 29.8 9.0 22 13.9 NW 19 28 10 15 1010.4 1010.4 0.0
19/04:30pm 34.9 30.8 7.9 19 15.1 NNW 19 28 10 15 1010.2 - 0.0
19/04:00pm 34.7 29.2 6.1 17 15.6 NNW 24 32 13 17 1010.1 1010.1 0.0
19/03:30pm 34.9 30.4 6.2 17 15.6 NNW 19 32 10 17 1009.9 - 0.0
19/03:00pm 36.3 31.1 3.5 13 17.3 NW 20 30 11 16 1009.9 1009.9 0.0
19/02:30pm 35.8 30.7 4.2 14 16.8 NNW 20 28 11 15 1010.1 - 0.0
19/02:00pm 36.6 31.2 2.6 12 17.7 WNW 20 32 11 17 1010.2 1010.2 0.0
19/01:30pm 36.8 31.7 2.8 12 17.7 WNW 19 28 10 15 1010.6 - 0.0
19/01:00pm 36.5 33.8 3.7 13 17.3 N 7 15 4 8 1011.1 1011.1 0.0
19/12:30pm 36.4 34.1 2.5 12 17.6 WNW 4 11 2 6 1011.7 - 0.0
19/12:00pm 36.0 31.7 0.9 11 17.7 ENE 13 22 7 12 1012.3 1012.3 0.0
19/11:30am 35.9 32.9 2.1 12 17.4 SSE 7 20 4 11 1012.8 - 0.0
19/11:00am 34.9 31.6 2.4 13 16.7 SE 9 20 5 11 1013.2 1013.2 0.0
19/10:30am 34.6 31.0 3.2 14 16.3 S 11 20 6 11 1013.7 - 0.0
19/10:00am 34.1 30.5 2.8 14 16.1 S 11 19 6 10 1014.0 1014.0 0.0
19/09:30am 33.1 29.7 3.9 16 15.2 S 11 17 6 9 1014.2 - 0.0
19/09:00am 31.6 28.0 5.2 19 13.9 SSE 13 17 7 9 1014.3 1014.3 0.0
19/08:30am 30.0 26.7 6.6 23 12.5 SE 13 17 7 9 1014.4 - 0.0
19/08:00am 26.9 25.1 7.9 30 10.2 SE 7 11 4 6 1014.3 1014.3 0.0
19/07:30am 23.8 22.4 9.4 40 7.8 E 7 9 4 5 1014.1 - 0.0
19/07:00am 21.4 19.3 9.9 48 6.2 E 11 11 6 6 1013.9 1013.9 0.0
19/06:30am 19.9 17.7 9.5 51 5.5 E 11 13 6 7 1013.7 - 0.0
19/06:00am 20.5 18.1 8.8 47 6.2 ESE 11 13 6 7 1013.5 1013.5 0.0
19/05:30am 19.9 18.4 9.2 50 5.7 SE 7 9 4 5 1013.5 - 0.0
19/05:00am 19.8 18.4 9.4 51 5.5 SSE 7 9 4 5 1013.5 1013.5 0.0
19/04:30am 20.1 18.7 9.4 50 5.7 SSE 7 9 4 5 1013.6 - 0.0
19/04:00am 20.4 18.7 9.9 51 5.6 SE 9 11 5 6 1013.6 1013.6 0.0
19/03:30am 20.9 19.6 10.1 50 5.8 SE 7 9 4 5 1013.8 - 0.0
19/03:00am 21.3 20.4 10.8 51 5.8 SE 6 7 3 4 1013.8 1013.8 0.0
19/02:30am 21.7 20.4 11.1 51 5.9 SE 9 11 5 6 1013.9 - 0.0
19/02:00am 21.6 20.2 11.0 51 5.8 SE 9 11 5 6 1014.1 1014.1 0.0
19/01:30am 22.0 20.7 11.4 51 5.9 SE 9 11 5 6 1014.3 - 0.0
19/01:00am 22.1 20.4 11.2 50 6.0 SSE 11 13 6 7 1014.4 1014.4 0.0
19/12:30am 21.9 20.5 11.0 50 6.0 SSE 9 11 5 6 1014.6 - 0.0
19/12:00am 22.2 21.1 10.7 48 6.3 S 7 7 4 4 1014.8 1014.8 0.0
 
Date/Time
WST
Temp
°C
App
Temp
°C
Dew
Point
Rel
Hum
%
Delta-T
°C
Wind Press
QNH
hPa
Press
MSL
hPa
Rain
since 9 am
mm
Dir
 
Spd
km/h
Gust
km/h
Spd
kts
Gust
kts
18/11:30pm 22.4 21.5 10.5 47 6.5 NW 6 7 3 4 1014.9 - 0.0
18/11:00pm 22.9 21.9 11.0 47 6.6 NW 7 9 4 5 1015.1 1015.1 0.0
18/10:30pm 23.7 22.5 11.7 47 6.8 NW 9 9 5 5 1015.0 - 0.0
18/10:00pm 24.0 23.4 11.7 46 6.9 NW 6 7 3 4 1015.1 1015.1 0.0
18/09:30pm 24.7 24.1 11.6 44 7.4 NW 6 6 3 3 1015.0 - 0.0
18/09:00pm 25.6 25.6 12.4 43 7.6 NW 4 4 2 2 1014.8 1014.8 0.0
18/08:30pm 26.1 26.6 12.9 44 7.7 NW 2 6 1 3 1014.7 - 0.0
18/08:00pm 26.9 28.0 13.6 44 7.9 CALM 0 0 0 0 1014.5 1014.5 0.0
18/07:30pm 27.6 28.9 16.2 49 7.0 NW 4 4 2 2 1014.1 - 0.0
18/07:00pm 28.2 29.3 15.5 46 7.8 NW 4 6 2 3 1013.9 1013.9 0.0
18/06:30pm 29.0 29.7 15.5 44 8.3 NW 6 7 3 4 1013.5 - 0.0
18/06:00pm 30.4 30.0 14.1 37 9.8 NW 9 13 5 7 1013.1 1013.1 0.0
18/05:30pm 31.6 29.4 13.4 33 10.9 NNW 17 22 9 12 1012.6 - 0.0
18/05:00pm 32.4 30.6 12.1 29 12.0 N 13 20 7 11 1012.3 1012.3 0.0

Other Formats:

Comma delimited format used in spreadsheet applications
http://www.bom.gov.au/fwo/IDW60801/IDW60801.94306.axf

JavaScript Object Notation format (JSON) in row-major order
http://www.bom.gov.au/fwo/IDW60801/IDW60801.94306.json